createdAt,value
2022-11-25T00:00:22.099Z,2.67
2022-11-25T00:03:09.128Z,2.57
2022-11-25T00:05:56.141Z,2.70
2022-11-25T00:08:44.793Z,3.27
2022-11-25T00:11:36.567Z,2.90
2022-11-25T00:14:23.525Z,3.23
2022-11-25T00:17:10.483Z,3.00
2022-11-25T00:19:57.460Z,2.13
2022-11-25T00:22:44.412Z,2.40
2022-11-25T00:25:31.385Z,2.53
2022-11-25T00:28:18.686Z,1.90
2022-11-25T00:31:14.607Z,1.80
2022-11-25T00:34:02.271Z,1.67
2022-11-25T00:36:49.244Z,1.90
2022-11-25T00:39:38.072Z,1.97
2022-11-25T00:42:43.409Z,1.80
2022-11-25T00:45:30.442Z,1.93
2022-11-25T00:48:17.494Z,2.23
2022-11-25T00:51:04.611Z,2.03
2022-11-25T00:53:54.658Z,2.27
2022-11-25T00:56:45.682Z,2.20
2022-11-25T00:59:32.689Z,2.27
2022-11-25T01:02:19.841Z,2.17
2022-11-25T01:05:07.116Z,2.23
2022-11-25T01:07:54.943Z,2.20
2022-11-25T01:10:41.933Z,2.20
2022-11-25T01:13:29.474Z,2.43
2022-11-25T01:16:19.063Z,2.40
2022-11-25T01:19:07.196Z,2.60
2022-11-25T01:21:54.139Z,2.37
2022-11-25T01:24:41.307Z,2.40
2022-11-25T01:27:28.246Z,2.30
2022-11-25T01:30:15.468Z,2.47
2022-11-25T01:33:02.508Z,2.50
2022-11-25T01:35:49.819Z,2.20
2022-11-25T01:38:37.031Z,2.00
2022-11-25T01:41:29.313Z,2.47
2022-11-25T01:44:22.947Z,2.57
2022-11-25T01:47:16.855Z,2.23
2022-11-25T01:50:07.167Z,2.40
2022-11-25T01:52:56.540Z,2.40
2022-11-25T01:55:48.966Z,2.17
2022-11-25T01:58:38.596Z,2.23
2022-11-25T02:01:25.784Z,2.23
2022-11-25T02:04:18.495Z,2.27
2022-11-25T02:07:14.685Z,2.50
2022-11-25T02:10:08.318Z,2.57
2022-11-25T02:12:55.422Z,2.57
2022-11-25T02:15:42.468Z,1.90
2022-11-25T02:18:30.282Z,2.10
2022-11-25T02:21:33.908Z,2.50
2022-11-25T02:24:39.125Z,2.10
2022-11-25T02:27:27.616Z,2.30
2022-11-25T02:30:14.913Z,2.00
2022-11-25T02:33:02.335Z,2.60
2022-11-25T02:35:54.997Z,2.27
2022-11-25T02:38:55.825Z,2.70
2022-11-25T02:41:50.673Z,3.43
2022-11-25T02:44:38.509Z,3.33
2022-11-25T02:47:25.473Z,3.47
2022-11-25T02:50:13.799Z,2.70
2022-11-25T02:53:00.781Z,2.20
2022-11-25T02:55:48.028Z,2.03
2022-11-25T02:58:35.772Z,2.70
2022-11-25T03:01:23.843Z,2.73
2022-11-25T03:04:11.050Z,3.10
2022-11-25T03:06:58.044Z,3.60
2022-11-25T03:09:45.321Z,3.00
2022-11-25T03:12:32.739Z,2.83
2022-11-25T03:15:19.983Z,3.77
2022-11-25T03:18:07.424Z,5.13
2022-11-25T03:20:55.988Z,5.07
2022-11-25T03:23:44.675Z,4.50
2022-11-25T03:26:31.714Z,4.13
2022-11-25T03:29:19.053Z,3.97
2022-11-25T03:32:09.483Z,3.30
2022-11-25T03:34:57.979Z,3.00
2022-11-25T03:37:45.232Z,3.60
2022-11-25T03:40:32.539Z,4.00
2022-11-25T03:43:19.625Z,3.63
2022-11-25T03:46:08.296Z,3.80
2022-11-25T03:48:56.001Z,3.10
2022-11-25T03:51:43.992Z,3.70
2022-11-25T03:54:31.737Z,3.47
2022-11-25T03:57:33.717Z,2.93
2022-11-25T04:00:22.019Z,2.97
2022-11-25T04:03:18.948Z,3.13
2022-11-25T04:06:06.045Z,3.47
2022-11-25T04:08:53.126Z,3.57
2022-11-25T04:12:00.005Z,4.13
2022-11-25T04:14:52.348Z,4.63
2022-11-25T04:17:39.418Z,4.60
2022-11-25T04:20:26.444Z,4.93
2022-11-25T04:23:21.876Z,6.20
2022-11-25T04:26:15.823Z,5.43
2022-11-25T04:29:03.108Z,5.40
2022-11-25T04:31:50.394Z,4.37
2022-11-25T04:34:37.872Z,6.77
2022-11-25T04:37:25.167Z,7.07
2022-11-25T04:40:14.127Z,5.20
2022-11-25T04:43:10.346Z,5.13
2022-11-25T04:46:16.923Z,5.23
2022-11-25T04:49:08.009Z,5.07
2022-11-25T04:51:55.231Z,4.90
2022-11-25T04:54:42.386Z,4.77
2022-11-25T04:57:29.544Z,4.63
2022-11-25T05:00:17.095Z,3.90
2022-11-25T05:03:04.462Z,4.33
2022-11-25T05:05:53.120Z,3.70
2022-11-25T05:08:40.466Z,4.87
2022-11-25T05:11:27.457Z,4.20
2022-11-25T05:14:15.473Z,4.27
2022-11-25T05:17:04.196Z,4.07
2022-11-25T05:19:52.154Z,3.80
2022-11-25T05:22:39.397Z,4.80
2022-11-25T05:25:28.292Z,4.93
2022-11-25T05:28:35.588Z,4.30
2022-11-25T05:31:23.030Z,3.80
2022-11-25T05:34:10.769Z,3.93
2022-11-25T05:36:58.349Z,3.40
2022-11-25T05:39:45.581Z,3.10
2022-11-25T05:42:55.405Z,2.80
2022-11-25T05:45:42.663Z,2.90
2022-11-25T05:48:31.383Z,3.23
2022-11-25T05:51:18.742Z,3.13
2022-11-25T05:54:05.981Z,3.13
2022-11-25T05:56:55.119Z,3.13
2022-11-25T06:00:08.703Z,3.50
2022-11-25T06:03:10.976Z,3.50
2022-11-25T06:05:59.485Z,3.33
2022-11-25T06:08:47.358Z,3.40
2022-11-25T06:11:34.749Z,3.00
2022-11-25T06:14:22.245Z,2.97
2022-11-25T06:17:11.083Z,2.77
2022-11-25T06:20:07.518Z,2.70
2022-11-25T06:22:55.058Z,2.20
2022-11-25T06:25:47.852Z,2.93
2022-11-25T06:28:34.897Z,3.40
2022-11-25T06:31:25.273Z,4.53
2022-11-25T06:34:42.603Z,6.23
2022-11-25T06:37:39.656Z,4.10
2022-11-25T06:40:26.657Z,3.20
2022-11-25T06:43:13.655Z,2.50
2022-11-25T06:46:08.781Z,2.00
2022-11-25T06:48:55.793Z,2.30
2022-11-25T06:51:42.759Z,1.90
2022-11-25T06:54:29.877Z,1.80
2022-11-25T06:57:19.029Z,1.83
2022-11-25T07:00:06.745Z,2.23
2022-11-25T07:02:53.747Z,2.17
2022-11-25T07:05:41.167Z,1.80
2022-11-25T07:08:33.761Z,2.00
2022-11-25T07:11:23.180Z,1.90
2022-11-25T07:14:13.621Z,2.07
2022-11-25T07:17:01.373Z,2.27
2022-11-25T07:19:48.658Z,2.20
2022-11-25T07:22:35.622Z,2.50
2022-11-25T07:25:26.581Z,2.60
2022-11-25T07:28:16.421Z,2.70
2022-11-25T07:31:31.000Z,2.20
2022-11-25T07:34:21.169Z,2.67
2022-11-25T07:37:08.293Z,2.90
2022-11-25T07:39:55.317Z,2.43
2022-11-25T07:42:42.301Z,2.60
2022-11-25T07:45:29.917Z,2.60
2022-11-25T07:48:34.829Z,2.67
2022-11-25T07:51:25.859Z,2.23
2022-11-25T07:54:13.433Z,2.20
2022-11-25T07:57:00.678Z,2.63
2022-11-25T07:59:47.714Z,3.10
2022-11-25T08:02:34.811Z,2.90
2022-11-25T08:05:21.897Z,3.00
2022-11-25T08:08:08.942Z,2.80
2022-11-25T08:10:56.111Z,2.90
2022-11-25T08:13:43.664Z,3.00
2022-11-25T08:16:31.568Z,2.77
2022-11-25T08:19:19.295Z,2.80
2022-11-25T08:22:06.858Z,2.87
2022-11-25T08:24:53.858Z,2.97
2022-11-25T08:27:41.366Z,3.10
2022-11-25T08:30:28.630Z,3.00
2022-11-25T08:33:16.164Z,3.03
2022-11-25T08:36:04.285Z,3.07
2022-11-25T08:38:54.948Z,3.20
2022-11-25T08:41:42.355Z,3.40
2022-11-25T08:44:29.984Z,3.73
2022-11-25T08:47:17.130Z,3.77
2022-11-25T08:50:08.703Z,3.63
2022-11-25T08:52:55.751Z,3.30
2022-11-25T08:55:43.084Z,18.57
2022-11-25T08:58:30.160Z,11.73
2022-11-25T09:01:18.894Z,12.37
2022-11-25T09:04:05.988Z,9.50
2022-11-25T09:06:53.094Z,7.53
2022-11-25T09:09:40.468Z,7.00
2022-11-25T09:12:27.696Z,6.43
2022-11-25T09:15:14.814Z,5.33
2022-11-25T09:18:05.417Z,4.57
2022-11-25T09:20:53.870Z,4.23
2022-11-25T09:23:40.942Z,3.70
2022-11-25T09:26:31.267Z,3.67
2022-11-25T09:29:18.298Z,3.23
2022-11-25T09:32:05.477Z,3.90
2022-11-25T09:34:52.555Z,3.50
2022-11-25T09:37:39.614Z,3.27
2022-11-25T09:40:47.960Z,3.50
2022-11-25T09:44:25.562Z,3.50
2022-11-25T09:47:33.027Z,3.43
2022-11-25T09:50:32.539Z,3.50
2022-11-25T09:53:39.756Z,5.03
2022-11-25T09:56:40.982Z,6.17
2022-11-25T10:00:02.973Z,5.27
2022-11-25T10:03:18.471Z,4.47
2022-11-25T10:06:16.207Z,4.43
2022-11-25T10:09:12.472Z,5.27
2022-11-25T10:12:29.481Z,5.20
2022-11-25T10:15:24.054Z,5.27
2022-11-25T10:18:23.426Z,5.90
2022-11-25T10:21:11.586Z,6.17
2022-11-25T10:23:58.565Z,6.40
2022-11-25T10:26:54.710Z,5.80
2022-11-25T10:29:42.209Z,5.50
2022-11-25T10:32:36.585Z,5.77
2022-11-25T10:35:47.136Z,6.37
2022-11-25T10:38:52.368Z,5.80
2022-11-25T10:42:07.209Z,5.27
2022-11-25T10:44:57.852Z,5.53
2022-11-25T10:48:22.539Z,5.27
2022-11-25T10:51:31.460Z,5.50
2022-11-25T10:54:38.983Z,5.33
2022-11-25T10:57:28.982Z,5.10
2022-11-25T11:00:37.516Z,5.90
2022-11-25T11:03:26.466Z,5.03
2022-11-25T11:06:36.454Z,5.53
2022-11-25T11:09:43.122Z,5.43
2022-11-25T11:12:30.111Z,5.50
2022-11-25T11:15:23.751Z,5.13
2022-11-25T11:18:39.164Z,6.20
2022-11-25T11:21:35.652Z,5.37
2022-11-25T11:24:32.157Z,5.53
2022-11-25T11:27:24.866Z,5.40
2022-11-25T11:30:21.143Z,4.93
2022-11-25T11:33:43.075Z,5.03
2022-11-25T11:36:54.578Z,4.97
2022-11-25T11:40:14.714Z,5.00
2022-11-25T11:43:20.549Z,5.17
2022-11-25T11:46:16.305Z,4.87
2022-11-25T11:49:33.122Z,4.57
2022-11-25T11:52:36.459Z,5.17
2022-11-25T11:56:34.108Z,4.23
2022-11-25T11:59:23.999Z,4.80
2022-11-25T12:02:32.579Z,4.70
2022-11-25T12:05:25.040Z,4.37
2022-11-25T12:08:25.922Z,5.17
2022-11-25T12:11:18.928Z,4.57
2022-11-25T12:14:31.806Z,4.60
2022-11-25T12:17:25.688Z,4.77
2022-11-25T12:20:34.588Z,4.33
2022-11-25T12:23:45.003Z,4.67
2022-11-25T12:26:53.909Z,4.10
2022-11-25T12:29:55.491Z,4.03
2022-11-25T12:33:12.956Z,4.10
2022-11-25T12:36:06.284Z,4.30
2022-11-25T12:39:01.988Z,4.60
2022-11-25T12:41:55.814Z,4.00
2022-11-25T12:44:59.346Z,4.10
2022-11-25T12:47:46.440Z,3.97
2022-11-25T12:50:59.901Z,3.73
2022-11-25T12:54:16.189Z,3.67
2022-11-25T12:57:24.165Z,3.83
2022-11-25T13:00:40.369Z,4.17
2022-11-25T13:03:33.841Z,3.60
2022-11-25T13:07:10.316Z,3.87
2022-11-25T13:10:15.093Z,3.80
2022-11-25T13:13:22.847Z,4.40
2022-11-25T13:16:11.251Z,4.07
2022-11-25T13:18:58.730Z,4.20
2022-11-25T13:22:04.297Z,3.40
2022-11-25T13:24:51.302Z,3.93
2022-11-25T13:27:41.903Z,4.07
2022-11-25T13:30:31.902Z,3.77
2022-11-25T13:33:18.772Z,3.40
2022-11-25T13:36:16.793Z,4.20
2022-11-25T13:39:06.689Z,4.20
2022-11-25T13:42:13.386Z,4.10
2022-11-25T13:45:00.951Z,3.60
2022-11-25T13:47:49.344Z,3.70
2022-11-25T13:51:03.289Z,3.77
2022-11-25T13:53:55.197Z,4.10
2022-11-25T13:56:42.202Z,3.47
2022-11-25T13:59:36.941Z,3.50
2022-11-25T14:02:26.819Z,3.20
2022-11-25T14:05:46.720Z,3.67
2022-11-25T14:08:43.347Z,3.63
2022-11-25T14:11:59.371Z,3.80
2022-11-25T14:15:25.667Z,3.50
2022-11-25T14:19:11.931Z,4.13
2022-11-25T14:22:01.815Z,4.10
2022-11-25T14:24:52.323Z,3.40
2022-11-25T14:27:44.715Z,3.80
2022-11-25T14:30:33.790Z,3.50
2022-11-25T14:33:31.505Z,4.00
2022-11-25T14:36:36.542Z,3.50
2022-11-25T14:39:33.973Z,3.20
2022-11-25T14:42:24.053Z,3.90
2022-11-25T14:45:29.950Z,3.93
2022-11-25T14:48:25.923Z,3.60
2022-11-25T14:51:18.582Z,4.07
2022-11-25T14:54:09.728Z,4.40
2022-11-25T14:56:56.823Z,3.60
2022-11-25T14:59:45.743Z,3.80
2022-11-25T15:02:36.266Z,4.53
2022-11-25T15:05:26.907Z,4.30
2022-11-25T15:08:17.770Z,4.00
2022-11-25T15:11:13.064Z,3.83
2022-11-25T15:14:01.891Z,4.03
2022-11-25T15:16:49.107Z,4.00
2022-11-25T15:19:37.573Z,3.60
2022-11-25T15:22:25.371Z,4.23
2022-11-25T15:25:15.375Z,3.60
2022-11-25T15:28:02.461Z,3.67
2022-11-25T15:31:20.360Z,3.67
2022-11-25T15:34:18.933Z,3.50
2022-11-25T15:37:06.001Z,3.20
2022-11-25T15:40:31.994Z,3.20
2022-11-25T15:43:29.658Z,10.03
2022-11-25T15:46:17.939Z,5.87
2022-11-25T15:49:06.325Z,4.77
2022-11-25T15:51:59.512Z,10.77
2022-11-25T15:54:50.121Z,22.10
2022-11-25T15:57:38.089Z,24.70
2022-11-25T16:00:25.147Z,12.93
2022-11-25T16:03:20.658Z,9.50
2022-11-25T16:06:27.637Z,6.47
2022-11-25T16:09:21.447Z,5.67
2022-11-25T16:12:17.620Z,3.80
2022-11-25T16:15:04.933Z,3.37
2022-11-25T16:18:02.828Z,3.53
2022-11-25T16:24:20.014Z,3.53
2022-11-25T16:27:15.793Z,3.30
2022-11-25T16:30:05.825Z,3.90
2022-11-25T16:32:52.766Z,3.27
2022-11-25T16:35:39.920Z,3.70
2022-11-25T16:38:26.879Z,3.00
2022-11-25T16:41:23.750Z,3.27
2022-11-25T16:44:22.536Z,3.20
2022-11-25T16:47:10.848Z,3.03
2022-11-25T16:49:57.829Z,2.80
2022-11-25T16:52:45.312Z,2.90
2022-11-25T16:55:32.315Z,4.67
2022-11-25T16:58:22.750Z,4.10
2022-11-25T17:01:16.557Z,3.43
2022-11-25T17:04:03.659Z,3.00
2022-11-25T17:07:16.624Z,3.00
2022-11-25T17:09:57.723Z,3.07
2022-11-25T17:12:46.991Z,3.00
2022-11-25T17:15:36.230Z,3.23
2022-11-25T17:18:25.096Z,3.17
2022-11-25T17:21:16.387Z,6.97
2022-11-25T17:24:16.549Z,6.60
2022-11-25T17:27:05.521Z,5.80
2022-11-25T17:29:53.692Z,11.33
2022-11-25T17:32:40.665Z,8.93
2022-11-25T17:35:27.657Z,4.87
2022-11-25T17:38:19.951Z,4.30
2022-11-25T17:41:13.427Z,4.60
2022-11-25T17:44:00.792Z,4.20
2022-11-25T17:46:47.810Z,3.40
2022-11-25T17:49:34.757Z,3.57
2022-11-25T17:52:21.737Z,3.60
2022-11-25T17:55:08.937Z,3.77
2022-11-25T17:57:55.882Z,3.13
2022-11-25T18:00:43.727Z,3.07
2022-11-25T18:03:30.714Z,4.53
2022-11-25T18:06:17.638Z,3.60
2022-11-25T18:09:04.580Z,3.87
2022-11-25T18:11:58.084Z,3.50
2022-11-25T18:14:46.434Z,3.60
2022-11-25T18:17:34.740Z,3.50
2022-11-25T18:20:26.227Z,4.50
2022-11-25T18:23:13.189Z,3.77
2022-11-25T18:26:01.548Z,4.57
2022-11-25T18:28:48.574Z,4.13
2022-11-25T18:31:35.495Z,4.33
2022-11-25T18:34:23.860Z,4.33
2022-11-25T18:37:13.824Z,4.20
2022-11-25T18:40:00.765Z,4.27
2022-11-25T18:42:51.315Z,4.47
2022-11-25T18:45:39.088Z,4.10
2022-11-25T18:48:26.791Z,4.37
2022-11-25T18:51:14.778Z,4.07
2022-11-25T18:54:01.723Z,4.63
2022-11-25T18:56:52.073Z,4.30
2022-11-25T18:59:39.393Z,4.30
2022-11-25T19:02:26.444Z,4.70
2022-11-25T19:05:23.810Z,4.83
2022-11-25T19:08:10.864Z,4.83
2022-11-25T19:10:57.960Z,4.30
2022-11-25T19:13:50.676Z,5.07
2022-11-25T19:16:38.437Z,4.47
2022-11-25T19:19:25.584Z,4.30
2022-11-25T19:22:15.626Z,4.40
2022-11-25T19:25:02.736Z,4.70
2022-11-25T19:27:54.286Z,5.43
2022-11-25T19:30:41.629Z,4.30
2022-11-25T19:33:36.711Z,4.60
2022-11-25T19:36:26.042Z,4.50
2022-11-25T19:39:17.442Z,5.10
2022-11-25T19:42:04.552Z,4.80
2022-11-25T19:44:52.667Z,4.73
2022-11-25T19:47:40.240Z,5.10
2022-11-25T19:50:28.716Z,4.83
2022-11-25T19:53:19.301Z,4.60
2022-11-25T19:56:06.365Z,4.80
2022-11-25T19:58:54.668Z,4.70
2022-11-25T20:01:44.281Z,5.03
2022-11-25T20:04:31.400Z,5.20
2022-11-25T20:07:20.592Z,5.10
2022-11-25T20:10:13.652Z,4.70
2022-11-25T20:13:00.668Z,5.00
2022-11-25T20:15:47.997Z,4.90
2022-11-25T20:18:35.596Z,4.97
2022-11-25T20:21:37.778Z,5.50
2022-11-25T20:24:26.920Z,4.97
2022-11-25T20:27:15.969Z,4.87
2022-11-25T20:30:14.028Z,4.67
2022-11-25T20:33:01.097Z,4.73
2022-11-25T20:35:50.815Z,4.87
2022-11-25T20:38:44.134Z,5.23
2022-11-25T20:41:31.866Z,5.93
2022-11-25T20:44:19.975Z,5.30
2022-11-25T20:47:26.300Z,5.17
2022-11-25T20:50:14.036Z,4.70
2022-11-25T20:53:01.106Z,4.97
2022-11-25T20:55:49.222Z,4.77
2022-11-25T20:58:36.935Z,5.17
2022-11-25T21:01:24.995Z,8.13
2022-11-25T21:04:12.040Z,7.93
2022-11-25T21:06:59.069Z,12.13
2022-11-25T21:09:45.996Z,15.07
2022-11-25T21:12:32.959Z,14.23
2022-11-25T21:15:22.345Z,21.50
2022-11-25T21:18:09.536Z,18.53
2022-11-25T21:20:57.641Z,26.17
2022-11-25T21:23:47.197Z,25.47
2022-11-25T21:26:34.442Z,22.57
2022-11-25T21:29:21.422Z,28.93
2022-11-25T21:32:20.675Z,18.73
2022-11-25T21:35:10.466Z,10.60
2022-11-25T21:37:58.426Z,16.03
2022-11-25T21:40:47.651Z,30.50
2022-11-25T21:43:39.998Z,30.30
2022-11-25T21:46:28.467Z,26.90
2022-11-25T21:49:15.392Z,15.87
2022-11-25T21:52:02.361Z,12.40
2022-11-25T21:54:49.319Z,14.43
2022-11-25T21:57:36.420Z,9.03
2022-11-25T22:00:25.637Z,6.60
2022-11-25T22:03:17.406Z,5.90
2022-11-25T22:06:21.891Z,5.57
2022-11-25T22:09:09.156Z,6.30
2022-11-25T22:11:56.326Z,5.70
2022-11-25T22:14:43.303Z,5.97
2022-11-25T22:17:30.518Z,6.43
2022-11-25T22:20:40.311Z,6.00
2022-11-25T22:23:27.838Z,5.67
2022-11-25T22:26:24.217Z,5.90
2022-11-25T22:29:23.272Z,5.37
2022-11-25T22:32:14.470Z,6.00
2022-11-25T22:35:01.536Z,6.23
2022-11-25T22:37:54.800Z,6.40
2022-11-25T22:40:44.928Z,5.47
2022-11-25T22:43:36.378Z,5.73
2022-11-25T22:46:23.453Z,6.20
2022-11-25T22:49:33.012Z,5.13
2022-11-25T22:52:26.217Z,5.90
2022-11-25T22:55:26.578Z,5.50
2022-11-25T22:58:14.419Z,5.80
2022-11-25T23:01:01.422Z,5.63
2022-11-25T23:03:48.393Z,5.70
2022-11-25T23:06:35.458Z,6.13
2022-11-25T23:09:22.446Z,5.10
2022-11-25T23:12:13.371Z,5.30
2022-11-25T23:15:00.422Z,5.60
2022-11-25T23:17:54.298Z,5.47
2022-11-25T23:20:41.789Z,5.60
2022-11-25T23:23:29.187Z,4.77
2022-11-25T23:26:16.252Z,5.50
2022-11-25T23:29:03.424Z,5.43
2022-11-25T23:31:50.443Z,5.30
2022-11-25T23:34:37.708Z,4.80
2022-11-25T23:37:24.808Z,4.80
2022-11-25T23:40:18.137Z,5.17
2022-11-25T23:43:12.388Z,4.70
2022-11-25T23:45:59.397Z,5.10
2022-11-25T23:48:54.551Z,5.13
2022-11-25T23:51:41.584Z,4.70
2022-11-25T23:54:41.363Z,4.80
2022-11-25T23:57:32.794Z,4.40
